createdAt,value
2019-03-19T00:00:33.465Z,4.41
2019-03-19T00:01:37.660Z,4.42
2019-03-19T00:02:41.777Z,4.42
2019-03-19T00:03:45.905Z,4.42
2019-03-19T00:04:50.102Z,4.44
2019-03-19T00:05:54.185Z,4.46
2019-03-19T00:06:58.406Z,4.49
2019-03-19T00:08:02.616Z,4.51
2019-03-19T00:09:06.856Z,4.52
2019-03-19T00:10:10.957Z,4.54
2019-03-19T00:11:15.046Z,4.54
2019-03-19T00:12:19.289Z,4.55
2019-03-19T00:13:23.410Z,4.56
2019-03-19T00:14:27.545Z,4.59
2019-03-19T00:15:31.692Z,4.62
2019-03-19T00:16:35.836Z,4.65
2019-03-19T00:17:39.995Z,4.68
2019-03-19T00:18:44.171Z,4.71
2019-03-19T00:19:48.427Z,4.73
2019-03-19T00:20:52.585Z,4.74
2019-03-19T00:21:56.745Z,4.74
2019-03-19T00:23:00.899Z,4.74
2019-03-19T00:24:05.065Z,4.75
2019-03-19T00:25:09.272Z,4.74
2019-03-19T00:26:13.482Z,4.75
2019-03-19T00:27:17.491Z,4.76
2019-03-19T00:28:21.705Z,4.78
2019-03-19T00:29:25.851Z,4.80
2019-03-19T00:30:30.072Z,4.80
2019-03-19T00:31:34.116Z,4.82
2019-03-19T00:32:38.447Z,4.83
2019-03-19T00:33:42.632Z,4.83
2019-03-19T00:34:46.845Z,4.84
2019-03-19T00:35:50.956Z,4.85
2019-03-19T00:36:55.198Z,4.88
2019-03-19T00:37:59.410Z,4.89
2019-03-19T00:39:03.584Z,4.90
2019-03-19T00:40:07.716Z,4.90
2019-03-19T00:41:12.012Z,4.90
2019-03-19T00:42:16.101Z,4.91
2019-03-19T00:43:20.120Z,4.92
2019-03-19T00:44:24.368Z,4.93
2019-03-19T00:45:28.617Z,4.92
2019-03-19T00:46:32.772Z,4.91
2019-03-19T00:47:36.961Z,4.89
2019-03-19T00:48:41.051Z,4.89
2019-03-19T00:49:45.297Z,4.90
2019-03-19T00:50:49.460Z,4.90
2019-03-19T00:51:53.629Z,4.91
2019-03-19T00:52:57.792Z,4.93
2019-03-19T00:54:01.995Z,4.92
2019-03-19T00:55:06.119Z,4.91
2019-03-19T00:56:10.286Z,4.90
2019-03-19T00:57:14.520Z,4.88
2019-03-19T00:58:18.609Z,4.86
2019-03-19T00:59:22.856Z,4.85
2019-03-19T01:00:27.034Z,4.84
2019-03-19T01:01:31.166Z,4.82
2019-03-19T01:02:35.381Z,4.80
2019-03-19T01:03:39.560Z,4.79
2019-03-19T01:04:43.756Z,4.79
2019-03-19T01:05:47.949Z,4.78
2019-03-19T01:06:52.189Z,4.77
2019-03-19T01:07:56.244Z,4.77
2019-03-19T01:09:00.348Z,4.74
2019-03-19T01:10:04.673Z,4.74
2019-03-19T01:11:08.768Z,4.74
2019-03-19T01:12:13.036Z,4.74
2019-03-19T01:13:17.227Z,4.75
2019-03-19T01:14:21.358Z,4.75
2019-03-19T01:15:25.417Z,4.75
2019-03-19T01:16:29.714Z,4.76
2019-03-19T01:17:33.954Z,4.75
2019-03-19T01:18:38.125Z,4.76
2019-03-19T01:19:42.318Z,4.75
2019-03-19T01:20:46.447Z,4.75
2019-03-19T01:21:50.658Z,4.76
2019-03-19T01:22:54.889Z,4.77
2019-03-19T01:23:58.918Z,4.78
2019-03-19T01:25:03.117Z,4.79
2019-03-19T01:26:07.394Z,4.80
2019-03-19T01:27:11.540Z,4.80
2019-03-19T01:28:15.734Z,4.79
2019-03-19T01:29:19.974Z,4.77
2019-03-19T01:30:24.087Z,4.76
2019-03-19T01:31:28.237Z,4.75
2019-03-19T01:32:32.537Z,4.74
2019-03-19T01:33:36.607Z,4.75
2019-03-19T01:34:40.764Z,4.74
2019-03-19T01:35:45.023Z,4.73
2019-03-19T01:36:49.212Z,4.74
2019-03-19T01:37:53.320Z,4.74
2019-03-19T01:38:57.563Z,4.74
2019-03-19T01:40:01.700Z,4.75
2019-03-19T01:41:05.844Z,4.77
2019-03-19T01:42:10.097Z,4.77
2019-03-19T01:43:14.248Z,4.77
2019-03-19T01:44:18.288Z,4.78
2019-03-19T01:45:22.541Z,4.78
2019-03-19T01:46:26.716Z,4.77
2019-03-19T01:47:31.123Z,4.77
2019-03-19T01:48:35.175Z,4.77
2019-03-19T01:49:39.340Z,4.78
2019-03-19T01:50:43.449Z,4.79
2019-03-19T01:51:47.624Z,4.79
2019-03-19T01:52:51.912Z,4.78
2019-03-19T01:53:56.014Z,4.77
2019-03-19T01:55:00.125Z,4.77
2019-03-19T01:56:05.342Z,4.77
2019-03-19T01:57:08.465Z,4.76
2019-03-19T01:58:12.740Z,4.75
2019-03-19T01:59:16.916Z,4.74
2019-03-19T02:00:21.100Z,4.74
2019-03-19T02:01:25.295Z,4.75
2019-03-19T02:02:29.503Z,4.74
2019-03-19T02:03:33.752Z,4.74
2019-03-19T02:04:37.862Z,4.72
2019-03-19T02:05:42.002Z,4.73
2019-03-19T02:06:46.255Z,4.74
2019-03-19T02:07:50.433Z,4.75
2019-03-19T02:08:54.544Z,4.74
2019-03-19T02:09:58.660Z,4.73
2019-03-19T02:11:02.777Z,4.72
2019-03-19T02:12:07.028Z,4.72
2019-03-19T02:13:17.224Z,4.72
2019-03-19T02:14:20.025Z,4.72
2019-03-19T02:15:24.135Z,4.71
2019-03-19T02:16:28.327Z,4.71
2019-03-19T02:17:32.451Z,4.71
2019-03-19T02:18:36.624Z,4.71
2019-03-19T02:19:40.787Z,4.71
2019-03-19T02:20:44.815Z,4.70
2019-03-19T02:21:49.042Z,4.70
2019-03-19T02:22:53.270Z,4.68
2019-03-19T02:23:57.368Z,4.67
2019-03-19T02:25:01.554Z,4.67
2019-03-19T02:26:15.597Z,4.67
2019-03-19T02:27:09.871Z,4.68
2019-03-19T02:28:14.069Z,4.68
2019-03-19T02:29:18.199Z,4.69
2019-03-19T02:30:22.295Z,4.72
2019-03-19T02:31:26.539Z,4.73
2019-03-19T02:32:30.662Z,4.75
2019-03-19T02:33:34.946Z,4.76
2019-03-19T02:34:39.040Z,4.77
2019-03-19T02:35:43.212Z,4.78
2019-03-19T02:36:47.462Z,4.77
2019-03-19T02:37:51.648Z,4.78
2019-03-19T02:38:55.831Z,4.78
2019-03-19T02:40:00.297Z,4.79
2019-03-19T02:41:04.070Z,4.80
2019-03-19T02:42:08.382Z,4.80
2019-03-19T02:43:12.505Z,4.81
2019-03-19T02:44:16.639Z,4.82
2019-03-19T02:45:20.906Z,4.82
2019-03-19T02:46:25.095Z,4.81
2019-03-19T02:47:29.293Z,4.81
2019-03-19T02:48:33.424Z,4.82
2019-03-19T02:49:37.616Z,4.82
2019-03-19T02:50:41.752Z,4.83
2019-03-19T02:51:45.985Z,4.83
2019-03-19T02:52:50.177Z,4.82
2019-03-19T02:53:54.304Z,4.83
2019-03-19T02:54:58.541Z,4.83
2019-03-19T02:56:02.755Z,4.83
2019-03-19T02:57:06.941Z,4.81
2019-03-19T02:58:11.080Z,4.77
2019-03-19T02:59:15.214Z,4.75
2019-03-19T03:00:19.465Z,4.74
2019-03-19T03:01:23.666Z,4.73
2019-03-19T03:02:27.912Z,4.73
2019-03-19T03:03:31.868Z,4.73
2019-03-19T03:04:36.181Z,4.73
2019-03-19T03:05:40.327Z,4.73
2019-03-19T03:06:44.433Z,4.71
2019-03-19T03:07:48.624Z,4.69
2019-03-19T03:08:52.821Z,4.68
2019-03-19T03:09:57.014Z,4.66
2019-03-19T03:11:01.136Z,4.65
2019-03-19T03:12:05.288Z,4.61
2019-03-19T03:13:09.485Z,4.57
2019-03-19T03:14:13.662Z,4.52
2019-03-19T03:15:17.701Z,4.51
2019-03-19T03:16:22.017Z,4.49
2019-03-19T03:17:26.135Z,4.48
2019-03-19T03:18:30.302Z,4.48
2019-03-19T03:19:34.452Z,4.47
2019-03-19T03:20:38.666Z,4.46
2019-03-19T03:21:42.789Z,4.45
2019-03-19T03:22:46.846Z,4.43
2019-03-19T03:23:51.165Z,4.42
2019-03-19T03:24:55.348Z,4.40
2019-03-19T03:25:59.572Z,4.39
2019-03-19T03:27:03.697Z,4.39
2019-03-19T03:28:07.870Z,4.39
2019-03-19T03:29:11.967Z,4.39
2019-03-19T03:30:16.051Z,4.38
2019-03-19T03:31:20.258Z,4.36
2019-03-19T03:32:24.517Z,4.35
2019-03-19T03:33:28.571Z,4.34
2019-03-19T03:34:32.769Z,4.31
2019-03-19T03:35:36.951Z,4.26
2019-03-19T03:36:41.066Z,4.20
2019-03-19T03:37:45.276Z,4.14
2019-03-19T03:38:49.430Z,4.10
2019-03-19T03:39:53.622Z,4.06
2019-03-19T03:40:57.743Z,4.06
2019-03-19T03:42:01.922Z,4.05
2019-03-19T03:43:06.101Z,4.05
2019-03-19T03:44:10.263Z,4.06
2019-03-19T03:45:14.558Z,4.07
2019-03-19T03:46:18.538Z,4.08
2019-03-19T03:47:22.838Z,4.09
2019-03-19T03:48:26.942Z,4.10
2019-03-19T03:49:31.129Z,4.11
2019-03-19T03:50:35.376Z,4.11
2019-03-19T03:51:39.455Z,4.12
2019-03-19T03:52:43.621Z,4.13
2019-03-19T03:53:47.769Z,4.14
2019-03-19T03:54:51.927Z,4.15
2019-03-19T03:55:56.167Z,4.13
2019-03-19T03:57:02.428Z,4.12
2019-03-19T03:58:04.259Z,4.12
2019-03-19T03:59:08.553Z,4.12
2019-03-19T04:00:12.687Z,4.12
2019-03-19T04:01:16.893Z,4.13
2019-03-19T04:02:21.031Z,4.12
2019-03-19T04:03:25.196Z,4.12
2019-03-19T04:04:29.235Z,4.11
2019-03-19T04:05:33.383Z,4.10
2019-03-19T04:06:37.504Z,4.08
2019-03-19T04:07:41.811Z,4.07
2019-03-19T04:08:45.981Z,4.06
2019-03-19T04:09:50.084Z,4.06
2019-03-19T04:10:54.271Z,4.05
2019-03-19T04:11:58.400Z,4.05
2019-03-19T04:13:02.659Z,4.04
2019-03-19T04:14:06.835Z,4.04
2019-03-19T04:15:10.984Z,4.03
2019-03-19T04:16:15.224Z,4.02
2019-03-19T04:17:19.431Z,4.00
2019-03-19T04:18:23.427Z,3.99
2019-03-19T04:19:27.733Z,3.96
2019-03-19T04:20:31.821Z,3.93
2019-03-19T04:21:36.016Z,3.91
2019-03-19T04:22:40.167Z,3.89
2019-03-19T04:23:44.350Z,3.88
2019-03-19T04:24:48.489Z,3.85
2019-03-19T04:25:52.694Z,3.82
2019-03-19T04:26:56.880Z,3.76
2019-03-19T04:28:00.908Z,3.69
2019-03-19T04:29:05.233Z,3.60
2019-03-19T04:30:09.261Z,3.52
2019-03-19T04:31:13.484Z,3.48
2019-03-19T04:32:17.753Z,3.48
2019-03-19T04:33:21.882Z,3.49
2019-03-19T04:34:25.919Z,3.50
2019-03-19T04:35:30.012Z,3.52
2019-03-19T04:36:34.335Z,3.54
2019-03-19T04:37:38.509Z,3.53
2019-03-19T04:38:42.625Z,3.54
2019-03-19T04:39:46.850Z,3.55
2019-03-19T04:40:51.043Z,3.54
2019-03-19T04:41:55.055Z,3.53
2019-03-19T04:42:59.247Z,3.53
2019-03-19T04:44:03.526Z,3.52
2019-03-19T04:45:07.721Z,3.51
2019-03-19T04:46:11.852Z,3.51
2019-03-19T04:47:16.103Z,3.51
2019-03-19T04:48:20.142Z,3.52
2019-03-19T04:49:24.352Z,3.52
2019-03-19T04:50:28.454Z,3.51
2019-03-19T04:51:32.633Z,3.49
2019-03-19T04:52:36.801Z,3.45
2019-03-19T04:53:40.967Z,3.42
2019-03-19T04:54:43.757Z,3.40
2019-03-19T04:55:47.903Z,3.39
2019-03-19T04:56:52.173Z,3.36
2019-03-19T04:57:56.170Z,3.35
2019-03-19T04:59:00.300Z,3.35
2019-03-19T05:00:04.484Z,3.37
2019-03-19T05:01:08.670Z,3.39
2019-03-19T05:02:12.695Z,3.39
2019-03-19T05:03:16.895Z,3.41
2019-03-19T05:04:21.143Z,3.42
2019-03-19T05:05:25.211Z,3.41
2019-03-19T05:06:29.397Z,3.40
2019-03-19T05:07:33.656Z,3.40
2019-03-19T05:08:37.675Z,3.41
2019-03-19T05:09:41.778Z,3.40
2019-03-19T05:10:45.994Z,3.39
2019-03-19T05:11:50.236Z,3.39
2019-03-19T05:12:54.347Z,3.39
2019-03-19T05:13:58.490Z,3.39
2019-03-19T05:15:02.639Z,3.37
2019-03-19T05:16:06.853Z,3.37
2019-03-19T05:17:10.977Z,3.38
2019-03-19T05:18:15.215Z,3.38
2019-03-19T05:19:19.229Z,3.39
2019-03-19T05:20:23.521Z,3.39
2019-03-19T05:21:27.643Z,3.39
2019-03-19T05:22:31.883Z,3.41
2019-03-19T05:23:36.002Z,3.43
2019-03-19T05:24:40.134Z,3.44
2019-03-19T05:25:44.304Z,3.46
2019-03-19T05:26:48.429Z,3.47
2019-03-19T05:27:52.601Z,3.49
2019-03-19T05:28:56.857Z,3.50
2019-03-19T05:30:00.967Z,3.51
2019-03-19T05:31:05.109Z,3.51
2019-03-19T05:32:09.345Z,3.52
2019-03-19T05:33:13.543Z,3.54
2019-03-19T05:34:17.691Z,3.56
2019-03-19T05:35:21.915Z,3.58
2019-03-19T05:36:26.028Z,3.60
2019-03-19T05:37:30.264Z,3.61
2019-03-19T05:38:34.475Z,3.62
2019-03-19T05:39:38.650Z,3.64
2019-03-19T05:40:42.738Z,3.66
2019-03-19T05:41:46.786Z,3.68
2019-03-19T05:42:50.940Z,3.70
2019-03-19T05:43:55.121Z,3.73
2019-03-19T05:44:59.356Z,3.75
2019-03-19T05:46:03.364Z,3.77
2019-03-19T05:47:07.518Z,3.80
2019-03-19T05:48:11.800Z,3.83
2019-03-19T05:49:15.920Z,3.85
2019-03-19T05:50:20.151Z,3.87
2019-03-19T05:51:24.267Z,3.90
2019-03-19T05:52:28.441Z,3.93
2019-03-19T05:53:32.495Z,3.96
2019-03-19T05:54:36.694Z,3.94
2019-03-19T05:55:40.861Z,3.94
2019-03-19T05:56:44.993Z,3.92
2019-03-19T05:57:50.481Z,3.93
2019-03-19T05:58:53.495Z,3.95
2019-03-19T05:59:57.674Z,3.95
2019-03-19T06:01:01.884Z,3.93
2019-03-19T06:02:05.974Z,3.91
2019-03-19T06:03:10.225Z,3.88
2019-03-19T06:04:14.458Z,3.87
2019-03-19T06:05:20.983Z,3.89
2019-03-19T06:06:22.859Z,3.94
2019-03-19T06:07:26.940Z,3.98
2019-03-19T06:08:31.131Z,4.01
2019-03-19T06:09:35.312Z,4.04
2019-03-19T06:10:39.362Z,4.07
2019-03-19T06:11:43.492Z,4.10
2019-03-19T06:12:47.677Z,4.11
2019-03-19T06:13:51.868Z,4.14
2019-03-19T06:14:56.102Z,4.16
2019-03-19T06:16:00.218Z,4.18
2019-03-19T06:17:04.467Z,4.19
2019-03-19T06:18:08.475Z,4.23
2019-03-19T06:19:12.625Z,4.27
2019-03-19T06:20:16.818Z,4.29
2019-03-19T06:21:20.977Z,4.30
2019-03-19T06:22:25.128Z,4.31
2019-03-19T06:23:29.401Z,4.32
2019-03-19T06:24:33.506Z,4.34
2019-03-19T06:25:37.572Z,4.35
2019-03-19T06:26:41.841Z,4.37
2019-03-19T06:27:45.975Z,4.40
2019-03-19T06:28:50.156Z,4.44
2019-03-19T06:29:54.310Z,4.48
2019-03-19T06:30:58.584Z,4.51
2019-03-19T06:32:02.594Z,4.56
2019-03-19T06:33:06.802Z,4.60
2019-03-19T06:34:10.962Z,4.63
2019-03-19T06:35:15.157Z,4.66
2019-03-19T06:36:19.223Z,4.69
2019-03-19T06:37:23.358Z,4.74
2019-03-19T06:38:27.577Z,4.79
2019-03-19T06:39:31.733Z,4.86
2019-03-19T06:40:36.039Z,4.93
2019-03-19T06:41:40.053Z,4.99
2019-03-19T06:42:44.353Z,5.05
2019-03-19T06:43:48.402Z,5.08
2019-03-19T06:44:52.713Z,5.10
2019-03-19T06:45:56.832Z,5.08
2019-03-19T06:47:00.987Z,5.05
2019-03-19T06:48:05.255Z,5.02
2019-03-19T06:49:09.461Z,4.99
2019-03-19T06:50:13.546Z,4.94
2019-03-19T06:51:17.673Z,4.91
2019-03-19T06:52:21.811Z,4.91
2019-03-19T06:53:26.058Z,4.92
2019-03-19T06:54:30.230Z,4.94
2019-03-19T06:55:34.496Z,4.96
2019-03-19T06:56:38.712Z,4.99
2019-03-19T06:57:42.812Z,5.02
2019-03-19T06:58:46.988Z,5.04
2019-03-19T06:59:51.144Z,5.05
2019-03-19T07:00:55.366Z,5.03
2019-03-19T07:01:59.588Z,5.04
2019-03-19T07:03:03.685Z,5.05
2019-03-19T07:04:07.980Z,5.06
2019-03-19T07:05:12.084Z,5.07
2019-03-19T07:06:16.246Z,5.08
2019-03-19T07:07:20.488Z,5.09
2019-03-19T07:08:24.658Z,5.13
2019-03-19T07:09:28.833Z,5.17
2019-03-19T07:10:33.173Z,5.21
2019-03-19T07:11:37.333Z,5.23
2019-03-19T07:12:41.424Z,5.24
2019-03-19T07:13:45.685Z,5.26
2019-03-19T07:14:49.835Z,5.28
2019-03-19T07:15:54.298Z,5.29
2019-03-19T07:16:58.278Z,5.31
2019-03-19T07:18:02.426Z,5.33
2019-03-19T07:19:06.619Z,5.37
2019-03-19T07:20:10.863Z,5.41
2019-03-19T07:21:15.121Z,5.43
2019-03-19T07:22:19.336Z,5.46
2019-03-19T07:23:23.418Z,5.50
2019-03-19T07:24:27.580Z,5.52
2019-03-19T07:25:31.755Z,5.55
2019-03-19T07:26:35.954Z,5.56
2019-03-19T07:27:40.089Z,5.57
2019-03-19T07:28:44.268Z,5.58
2019-03-19T07:29:48.410Z,5.58
2019-03-19T07:30:55.579Z,5.60
2019-03-19T07:31:58.840Z,5.62
2019-03-19T07:33:03.066Z,5.64
2019-03-19T07:34:07.287Z,5.66
2019-03-19T07:35:11.422Z,5.67
2019-03-19T07:36:15.720Z,5.68
2019-03-19T07:37:19.954Z,5.68
2019-03-19T07:38:24.167Z,5.70
2019-03-19T07:39:28.306Z,5.72
2019-03-19T07:40:32.550Z,5.76
2019-03-19T07:41:36.791Z,5.80
2019-03-19T07:42:41.027Z,5.84
2019-03-19T07:43:45.247Z,5.87
2019-03-19T07:44:49.401Z,5.87
2019-03-19T07:45:53.674Z,5.86
2019-03-19T07:46:57.845Z,5.86
2019-03-19T07:48:02.025Z,5.87
2019-03-19T07:49:06.305Z,5.86
2019-03-19T07:50:10.507Z,5.85
2019-03-19T07:51:14.776Z,5.82
2019-03-19T07:52:19.009Z,5.79
2019-03-19T07:53:23.146Z,5.77
2019-03-19T07:54:27.292Z,5.78
2019-03-19T07:55:31.558Z,5.79
2019-03-19T07:56:35.920Z,5.80
2019-03-19T07:57:40.051Z,5.82
2019-03-19T07:58:45.399Z,5.84
2019-03-19T07:59:48.479Z,5.87
2019-03-19T08:00:52.609Z,5.88
2019-03-19T08:01:56.889Z,5.91
2019-03-19T08:03:01.186Z,5.93
2019-03-19T08:04:05.360Z,5.95
2019-03-19T08:05:09.580Z,5.96
2019-03-19T08:06:13.771Z,5.98
2019-03-19T08:07:18.124Z,5.99
2019-03-19T08:08:22.283Z,6.01
2019-03-19T08:09:26.545Z,6.03
2019-03-19T08:10:30.767Z,6.04
2019-03-19T08:11:34.987Z,6.06
2019-03-19T08:12:39.214Z,6.08
2019-03-19T08:13:43.388Z,6.10
2019-03-19T08:14:47.620Z,6.13
2019-03-19T08:15:51.834Z,6.14
2019-03-19T08:16:55.978Z,6.17
2019-03-19T08:18:00.269Z,6.20
2019-03-19T08:19:04.348Z,6.21
2019-03-19T08:20:08.659Z,6.24
2019-03-19T08:21:12.957Z,6.26
2019-03-19T08:22:17.099Z,6.29
2019-03-19T08:23:21.373Z,6.32
2019-03-19T08:24:25.597Z,6.35
2019-03-19T08:25:29.849Z,6.37
2019-03-19T08:26:34.094Z,6.40
2019-03-19T08:27:38.331Z,6.42
2019-03-19T08:28:42.583Z,6.45
2019-03-19T08:29:46.779Z,6.48
2019-03-19T08:30:50.991Z,6.50
2019-03-19T08:31:55.257Z,6.52
2019-03-19T08:32:59.371Z,6.55
2019-03-19T08:34:03.630Z,6.59
2019-03-19T08:35:07.752Z,6.62
2019-03-19T08:36:12.072Z,6.64
2019-03-19T08:37:16.306Z,6.65
2019-03-19T08:38:20.550Z,6.65
2019-03-19T08:39:24.765Z,6.66
2019-03-19T08:40:28.886Z,6.68
2019-03-19T08:41:33.196Z,6.69
2019-03-19T08:42:37.426Z,6.69
2019-03-19T08:43:41.531Z,6.71
2019-03-19T08:44:45.871Z,6.73
2019-03-19T08:45:50.018Z,6.74
2019-03-19T08:46:54.201Z,6.76
2019-03-19T08:47:58.384Z,6.77
2019-03-19T08:49:02.684Z,6.80
2019-03-19T08:50:06.808Z,6.85
2019-03-19T08:51:11.014Z,6.89
2019-03-19T08:52:15.318Z,6.93
2019-03-19T08:53:19.532Z,6.96
2019-03-19T08:54:23.673Z,7.01
2019-03-19T08:55:27.972Z,7.06
2019-03-19T08:56:32.225Z,7.14
2019-03-19T08:57:36.396Z,7.22
2019-03-19T08:58:40.674Z,7.30
2019-03-19T08:59:44.924Z,7.39
2019-03-19T09:00:49.089Z,7.48
2019-03-19T09:01:53.356Z,7.54
2019-03-19T09:02:57.609Z,7.57
2019-03-19T09:04:01.879Z,7.59
2019-03-19T09:05:06.013Z,7.58
2019-03-19T09:06:10.284Z,7.55
2019-03-19T09:07:14.495Z,7.49
2019-03-19T09:08:18.794Z,7.43
2019-03-19T09:09:22.935Z,7.36
2019-03-19T09:10:27.149Z,7.31
2019-03-19T09:11:31.427Z,7.27
2019-03-19T09:12:35.687Z,7.25
2019-03-19T09:13:39.881Z,7.23
2019-03-19T09:14:44.124Z,7.21
2019-03-19T09:15:48.366Z,7.21
2019-03-19T09:16:52.588Z,7.24
2019-03-19T09:17:56.731Z,7.27
2019-03-19T09:19:01.039Z,7.30
2019-03-19T09:20:05.304Z,7.33
2019-03-19T09:21:09.567Z,7.34
2019-03-19T09:22:13.828Z,7.34
2019-03-19T09:23:18.079Z,7.34
2019-03-19T09:24:22.345Z,7.37
2019-03-19T09:25:26.568Z,7.43
2019-03-19T09:26:30.899Z,7.53
2019-03-19T09:27:35.110Z,7.63
2019-03-19T09:28:39.467Z,7.73
2019-03-19T09:29:43.665Z,7.79
2019-03-19T09:30:47.819Z,7.84
2019-03-19T09:31:52.118Z,7.91
2019-03-19T09:32:56.452Z,7.96
2019-03-19T09:34:00.690Z,7.99
2019-03-19T09:35:04.948Z,7.97
2019-03-19T09:36:09.160Z,7.93
2019-03-19T09:37:13.489Z,7.88
2019-03-19T09:38:17.693Z,7.83
2019-03-19T09:39:21.956Z,7.82
2019-03-19T09:40:26.197Z,7.83
2019-03-19T09:41:30.448Z,7.85
2019-03-19T09:42:34.573Z,7.88
2019-03-19T09:43:38.913Z,7.88
2019-03-19T09:44:43.151Z,7.88
2019-03-19T09:45:47.404Z,7.83
2019-03-19T09:46:51.653Z,7.80
2019-03-19T09:47:55.822Z,7.72
2019-03-19T09:49:00.098Z,7.68
2019-03-19T09:50:04.249Z,7.67
2019-03-19T09:51:08.562Z,7.66
2019-03-19T09:52:12.813Z,7.68
2019-03-19T09:53:18.746Z,7.72
2019-03-19T09:54:21.176Z,7.73
2019-03-19T09:55:25.515Z,7.72
2019-03-19T09:56:29.762Z,7.72
2019-03-19T09:57:33.896Z,7.70
2019-03-19T09:58:38.130Z,7.67
2019-03-19T09:59:44.523Z,7.67
2019-03-19T10:00:46.612Z,7.67
2019-03-19T10:01:50.754Z,7.70
2019-03-19T10:02:55.123Z,7.73
2019-03-19T10:03:59.260Z,7.77
2019-03-19T10:05:03.576Z,7.83
2019-03-19T10:06:13.950Z,7.89
2019-03-19T10:07:11.988Z,7.94
2019-03-19T10:08:16.318Z,8.00
2019-03-19T10:09:20.560Z,8.06
2019-03-19T10:10:24.951Z,8.12
2019-03-19T10:11:29.080Z,8.15
2019-03-19T10:12:33.223Z,8.17
2019-03-19T10:13:37.523Z,8.16
2019-03-19T10:14:41.678Z,8.15
2019-03-19T10:15:45.979Z,8.13
2019-03-19T10:16:50.207Z,8.14
2019-03-19T10:17:54.325Z,8.16
2019-03-19T10:18:58.630Z,8.18
2019-03-19T10:20:02.781Z,8.19
2019-03-19T10:21:06.961Z,8.21
2019-03-19T10:22:11.178Z,8.23
2019-03-19T10:23:15.506Z,8.26
2019-03-19T10:24:19.798Z,8.30
2019-03-19T10:25:24.058Z,8.36
2019-03-19T10:26:28.224Z,8.43
2019-03-19T10:27:32.522Z,8.51
2019-03-19T10:28:36.854Z,8.59
2019-03-19T10:29:41.061Z,8.71
2019-03-19T10:30:45.285Z,8.80
2019-03-19T10:31:49.602Z,8.86
2019-03-19T10:32:53.999Z,8.85
2019-03-19T10:33:58.150Z,8.80
2019-03-19T10:35:02.430Z,8.76
2019-03-19T10:36:06.699Z,8.73
2019-03-19T10:37:10.922Z,8.68
2019-03-19T10:38:15.288Z,8.62
2019-03-19T10:39:19.471Z,8.51
2019-03-19T10:40:23.728Z,8.46
2019-03-19T10:41:27.841Z,8.43
2019-03-19T10:42:32.183Z,8.42
2019-03-19T10:43:36.477Z,8.44
2019-03-19T10:44:40.733Z,8.43
2019-03-19T10:45:44.899Z,8.42
2019-03-19T10:46:49.124Z,8.44
2019-03-19T10:47:53.412Z,8.48
2019-03-19T10:48:57.723Z,8.53
2019-03-19T10:50:01.953Z,8.55
2019-03-19T10:51:06.200Z,8.58
2019-03-19T10:52:10.440Z,8.61
2019-03-19T10:53:14.737Z,8.64
2019-03-19T10:54:19.022Z,8.67
2019-03-19T10:55:23.247Z,8.69
2019-03-19T10:56:27.496Z,8.72
2019-03-19T10:57:31.671Z,8.66
2019-03-19T10:58:35.915Z,8.61
2019-03-19T10:59:48.742Z,8.61
2019-03-19T11:00:44.523Z,8.65
2019-03-19T11:01:51.347Z,8.70
2019-03-19T11:02:53.161Z,8.75
2019-03-19T11:03:57.399Z,8.77
2019-03-19T11:05:01.704Z,8.73
2019-03-19T11:06:05.969Z,8.69
2019-03-19T11:07:10.359Z,8.69
2019-03-19T11:08:14.573Z,8.69
2019-03-19T11:09:18.807Z,8.69
2019-03-19T11:10:23.133Z,8.69
2019-03-19T11:11:27.355Z,8.69
2019-03-19T11:12:31.512Z,8.65
2019-03-19T11:13:35.679Z,8.66
2019-03-19T11:14:40.022Z,8.66
2019-03-19T11:15:44.285Z,8.66
2019-03-19T11:16:48.563Z,8.64
2019-03-19T11:17:52.946Z,8.61
2019-03-19T11:18:57.157Z,8.61
2019-03-19T11:20:01.341Z,8.64
2019-03-19T11:21:05.638Z,8.67
2019-03-19T11:22:09.859Z,8.68
2019-03-19T11:23:14.111Z,8.68
2019-03-19T11:24:18.432Z,8.67
2019-03-19T11:25:22.653Z,8.66
2019-03-19T11:26:26.929Z,8.60
2019-03-19T11:27:31.206Z,8.58
2019-03-19T11:28:35.469Z,8.56
2019-03-19T11:29:39.791Z,8.56
2019-03-19T11:30:44.010Z,8.58
2019-03-19T11:31:48.266Z,8.61
2019-03-19T11:32:52.409Z,8.64
2019-03-19T11:33:56.738Z,8.66
2019-03-19T11:35:00.996Z,8.69
2019-03-19T11:36:05.266Z,8.68
2019-03-19T11:37:09.408Z,8.67
2019-03-19T11:38:13.712Z,8.66
2019-03-19T11:39:17.959Z,8.68
2019-03-19T11:40:22.241Z,8.69
2019-03-19T11:41:26.516Z,8.70
2019-03-19T11:42:30.829Z,8.71
2019-03-19T11:43:35.070Z,8.74
2019-03-19T11:44:39.340Z,8.77
2019-03-19T11:45:43.609Z,8.80
2019-03-19T11:46:47.867Z,8.83
2019-03-19T11:47:52.111Z,8.89
2019-03-19T11:48:56.270Z,8.95
2019-03-19T11:50:00.590Z,8.99
2019-03-19T11:51:04.844Z,9.03
2019-03-19T11:52:09.024Z,9.04
2019-03-19T11:53:13.343Z,9.03
2019-03-19T11:54:17.506Z,9.01
2019-03-19T11:55:21.832Z,9.01
2019-03-19T11:56:26.203Z,9.01
2019-03-19T11:57:30.503Z,9.02
2019-03-19T11:58:34.764Z,9.05
2019-03-19T11:59:39.074Z,9.08
2019-03-19T12:00:43.362Z,9.10
2019-03-19T12:01:47.597Z,9.11
2019-03-19T12:02:51.878Z,9.10
2019-03-19T12:03:56.110Z,9.08
2019-03-19T12:05:00.390Z,9.10
2019-03-19T12:06:04.652Z,9.15
2019-03-19T12:07:08.800Z,9.27
2019-03-19T12:08:13.132Z,9.42
2019-03-19T12:09:17.404Z,9.52
2019-03-19T12:10:21.795Z,9.57
2019-03-19T12:11:26.039Z,9.60
2019-03-19T12:12:30.205Z,9.62
2019-03-19T12:13:34.622Z,9.60
2019-03-19T12:14:38.891Z,9.62
2019-03-19T12:15:43.178Z,9.62
2019-03-19T12:16:47.470Z,9.64
2019-03-19T12:17:51.737Z,9.66
2019-03-19T12:18:55.926Z,9.68
2019-03-19T12:20:00.232Z,9.67
2019-03-19T12:21:04.631Z,9.63
2019-03-19T12:22:08.867Z,9.57
2019-03-19T12:23:13.011Z,9.48
2019-03-19T12:24:17.307Z,9.43
2019-03-19T12:25:21.587Z,9.38
2019-03-19T12:26:25.856Z,9.33
2019-03-19T12:27:30.100Z,9.27
2019-03-19T12:28:39.716Z,9.25
2019-03-19T12:29:38.685Z,9.35
2019-03-19T12:30:42.849Z,9.52
2019-03-19T12:31:47.156Z,9.73
2019-03-19T12:32:51.478Z,9.92
2019-03-19T12:33:55.846Z,10.04
2019-03-19T12:35:01.666Z,10.11
2019-03-19T12:36:04.488Z,10.11
2019-03-19T12:37:08.822Z,10.13
2019-03-19T12:38:13.026Z,10.12
2019-03-19T12:39:17.323Z,10.02
2019-03-19T12:40:21.598Z,9.87
2019-03-19T12:41:25.911Z,9.78
2019-03-19T12:42:30.074Z,9.70
2019-03-19T12:43:34.427Z,9.70
2019-03-19T12:44:38.715Z,9.77
2019-03-19T12:45:43.011Z,9.79
2019-03-19T12:46:47.332Z,9.75
2019-03-19T12:47:51.574Z,9.71
2019-03-19T12:48:55.867Z,9.81
2019-03-19T12:50:00.355Z,9.94
2019-03-19T12:51:04.440Z,10.15
2019-03-19T12:52:08.685Z,10.33
2019-03-19T12:53:12.961Z,10.58
2019-03-19T12:54:17.237Z,10.83
2019-03-19T12:55:21.524Z,11.01
2019-03-19T12:56:25.833Z,11.10
2019-03-19T12:57:30.121Z,11.24
2019-03-19T12:58:34.318Z,11.31
2019-03-19T12:59:38.657Z,11.48
2019-03-19T13:00:42.875Z,11.69
2019-03-19T13:01:47.249Z,11.81
2019-03-19T13:02:51.554Z,11.93
2019-03-19T13:03:55.473Z,11.88
2019-03-19T13:04:59.783Z,11.78
2019-03-19T13:06:04.080Z,11.78
2019-03-19T13:07:08.391Z,11.89
2019-03-19T13:08:12.618Z,12.00
2019-03-19T13:09:16.967Z,12.07
2019-03-19T13:10:21.275Z,12.19
2019-03-19T13:11:25.527Z,12.38
2019-03-19T13:12:29.853Z,12.50
2019-03-19T13:13:34.148Z,12.54
2019-03-19T13:14:38.452Z,12.49
2019-03-19T13:15:42.653Z,12.33
2019-03-19T13:16:47.119Z,12.11
2019-03-19T13:17:51.299Z,11.90
2019-03-19T13:18:55.574Z,11.71
2019-03-19T13:20:00.004Z,11.50
2019-03-19T13:21:04.237Z,11.33
2019-03-19T13:22:08.623Z,11.16
2019-03-19T13:23:12.832Z,10.96
2019-03-19T13:24:17.493Z,10.80
2019-03-19T13:25:21.443Z,10.77
2019-03-19T13:26:25.657Z,10.75
2019-03-19T13:27:30.043Z,10.79
2019-03-19T13:28:34.314Z,10.90
2019-03-19T13:29:38.701Z,11.08
2019-03-19T13:30:45.266Z,11.32
2019-03-19T13:31:50.168Z,11.38
2019-03-19T13:32:53.578Z,11.41
2019-03-19T13:33:57.837Z,11.34
2019-03-19T13:35:02.030Z,11.26
2019-03-19T13:36:06.339Z,11.09
2019-03-19T13:37:10.639Z,10.98
2019-03-19T13:38:14.911Z,10.82
2019-03-19T13:39:19.298Z,10.64
2019-03-19T13:40:23.533Z,10.43
2019-03-19T13:41:27.827Z,10.38
2019-03-19T13:42:32.096Z,10.33
2019-03-19T13:43:36.293Z,10.25
2019-03-19T13:44:40.579Z,10.19
2019-03-19T13:45:44.861Z,10.08
2019-03-19T13:46:49.148Z,9.97
2019-03-19T13:47:53.494Z,9.86
2019-03-19T13:48:57.816Z,9.77
2019-03-19T13:50:02.025Z,9.71
2019-03-19T13:51:06.272Z,9.72
2019-03-19T13:52:10.541Z,9.77
2019-03-19T13:53:14.850Z,9.79
2019-03-19T13:54:19.109Z,9.77
2019-03-19T13:55:23.351Z,9.71
2019-03-19T13:56:27.596Z,9.66
2019-03-19T13:57:31.782Z,9.61
2019-03-19T13:58:36.105Z,9.60
2019-03-19T13:59:40.442Z,9.68
2019-03-19T14:00:55.090Z,9.80
2019-03-19T14:01:48.953Z,9.98
2019-03-19T14:02:53.241Z,10.11
2019-03-19T14:03:57.546Z,10.13
2019-03-19T14:05:01.865Z,10.10
2019-03-19T14:06:06.112Z,10.05
2019-03-19T14:07:10.368Z,10.04
2019-03-19T14:08:14.676Z,10.12
2019-03-19T14:09:18.947Z,10.21
2019-03-19T14:10:23.158Z,10.31
2019-03-19T14:11:27.482Z,10.35
2019-03-19T14:12:31.780Z,10.32